Time;durP1;ratioP1;P1;durP2;ratioP2;P2;SDS_P1;SDS_P2;PMS_P1;PMS_P2;Temp;Humidity;BMP_temperature;BMP_pressure;BME280_temperature;BME280_humidity;BME280_pressure;Samples;Min_cycle;Max_cycle;Signal;HPM_P1;HPM_P2
2022/03/05 00:00:02;;;;;;;9.95;6.05;;;2.30;99.90;;;;;;5152559;27;20023;-57
2022/03/05 00:02:27;;;;;;;10.68;5.50;;;2.30;99.90;;;;;;5152465;27;20052;-57
2022/03/05 00:04:53;;;;;;;14.75;5.50;;;2.30;99.90;;;;;;5140784;27;20028;-56
2022/03/05 00:07:21;;;;;;;9.88;5.25;;;2.30;99.90;;;;;;5121470;27;20326;-57
2022/03/05 00:09:47;;;;;;;9.57;4.95;;;2.30;99.90;;;;;;5120659;27;20065;-56
2022/03/05 00:12:13;;;;;;;8.63;4.93;;;2.40;99.90;;;;;;5119602;27;20063;-57
2022/03/05 00:14:38;;;;;;;9.27;4.55;;;2.30;99.90;;;;;;5112860;27;20388;-56
2022/03/05 00:17:04;;;;;;;11.48;5.13;;;2.40;99.90;;;;;;5113977;27;20034;-57
2022/03/05 00:19:29;;;;;;;10.60;5.22;;;2.30;99.90;;;;;;5118164;27;20015;-57
2022/03/05 00:21:57;;;;;;;11.60;5.25;;;2.30;99.90;;;;;;5127746;27;20026;-57
2022/03/05 00:24:22;;;;;;;7.45;4.25;;;2.30;99.90;;;;;;5119298;27;20455;-57
2022/03/05 00:26:48;;;;;;;11.73;4.95;;;2.30;99.90;;;;;;5118850;27;20317;-57
2022/03/05 00:29:13;;;;;;;10.57;5.70;;;2.30;99.90;;;;;;5119756;27;20030;-56
2022/03/05 00:31:39;;;;;;;11.30;5.30;;;2.30;99.90;;;;;;5119583;27;20026;-56
2022/03/05 00:34:05;;;;;;;9.25;5.43;;;2.40;99.90;;;;;;5120826;27;20024;-56
2022/03/05 00:36:30;;;;;;;10.63;5.45;;;2.30;99.90;;;;;;5120057;27;20136;-56
2022/03/05 00:38:56;;;;;;;10.52;4.60;;;2.40;99.90;;;;;;5117834;27;20015;-56
2022/03/05 00:41:22;;;;;;;9.57;5.35;;;2.40;99.90;;;;;;5120893;27;20106;-56
2022/03/05 00:43:48;;;;;;;10.80;5.25;;;2.40;99.90;;;;;;5120009;27;20055;-56
2022/03/05 00:46:13;;;;;;;10.93;5.38;;;2.40;99.90;;;;;;5118350;27;20102;-56
2022/03/05 00:48:39;;;;;;;8.02;4.75;;;2.40;99.90;;;;;;5120681;27;20134;-56
2022/03/05 00:51:05;;;;;;;10.05;5.07;;;2.40;99.90;;;;;;5123432;27;20050;-56
2022/03/05 00:53:30;;;;;;;10.50;4.75;;;2.40;99.90;;;;;;5122042;27;20023;-56
2022/03/05 00:55:56;;;;;;;10.23;5.13;;;2.40;99.90;;;;;;5118875;27;20106;-56
2022/03/05 00:58:21;;;;;;;8.18;5.15;;;2.40;99.90;;;;;;5126674;27;20019;-56
2022/03/05 01:00:47;;;;;;;10.93;5.07;;;2.40;99.90;;;;;;5130607;27;20027;-57
2022/03/05 01:03:13;;;;;;;11.32;5.10;;;2.40;99.90;;;;;;5129322;27;20023;-56
2022/03/05 01:05:39;;;;;;;11.40;5.85;;;2.40;99.90;;;;;;5129650;27;20376;-57
2022/03/05 01:08:04;;;;;;;10.07;5.32;;;2.40;99.90;;;;;;5130945;27;20055;-57
2022/03/05 01:10:30;;;;;;;7.35;5.07;;;2.40;99.90;;;;;;5130348;27;20031;-56
2022/03/05 01:12:55;;;;;;;9.30;5.20;;;2.40;99.90;;;;;;5130390;27;20150;-56
2022/03/05 01:15:21;;;;;;;9.18;5.55;;;2.40;99.90;;;;;;5129812;27;20452;-56
2022/03/05 01:17:46;;;;;;;13.10;5.97;;;2.40;99.90;;;;;;5128955;27;20019;-56
2022/03/05 01:20:12;;;;;;;7.95;5.13;;;2.30;99.90;;;;;;5126314;27;20023;-56
2022/03/05 01:22:37;;;;;;;12.43;5.15;;;2.30;99.90;;;;;;5142687;27;20022;-56
2022/03/05 01:25:03;;;;;;;10.45;5.25;;;2.30;99.90;;;;;;5150850;27;20056;-56
2022/03/05 01:27:29;;;;;;;9.57;5.38;;;2.20;99.90;;;;;;5149132;27;20413;-56
2022/03/05 01:29:54;;;;;;;7.75;4.78;;;2.20;99.90;;;;;;5150766;27;20033;-56
2022/03/05 01:32:20;;;;;;;9.38;5.20;;;2.20;99.90;;;;;;5150804;27;20033;-56
2022/03/05 01:34:45;;;;;;;9.25;5.32;;;2.10;99.90;;;;;;5150531;27;20037;-57
2022/03/05 01:37:11;;;;;;;9.45;5.25;;;2.10;99.90;;;;;;5150101;27;20053;-57
2022/03/05 01:39:37;;;;;;;10.18;5.18;;;2.10;99.90;;;;;;5150607;27;20034;-56
2022/03/05 01:42:04;;;;;;;12.00;5.10;;;2.00;99.90;;;;;;5150764;27;20428;-56
2022/03/05 01:44:29;;;;;;;7.80;5.30;;;1.90;99.90;;;;;;5151039;27;20014;-56
2022/03/05 01:46:55;;;;;;;8.48;6.05;;;1.90;99.90;;;;;;5150105;27;20079;-56
2022/03/05 01:49:20;;;;;;;10.50;5.13;;;1.90;99.90;;;;;;5144743;27;20041;-56
2022/03/05 01:51:46;;;;;;;10.40;5.40;;;1.90;99.90;;;;;;5134552;27;20027;-56
2022/03/05 01:54:12;;;;;;;11.63;5.78;;;1.90;99.90;;;;;;5109111;28;20032;-56
2022/03/05 01:56:40;;;;;;;9.90;5.60;;;1.90;99.90;;;;;;5108591;28;20051;-56
2022/03/05 01:59:06;;;;;;;9.77;5.35;;;1.90;99.90;;;;;;5107514;28;20028;-56
2022/03/05 02:01:32;;;;;;;8.13;5.22;;;1.90;99.90;;;;;;5108069;28;20020;-56
2022/03/05 02:03:59;;;;;;;9.57;5.10;;;1.90;99.90;;;;;;5108425;28;20024;-56
2022/03/05 02:06:25;;;;;;;13.90;5.25;;;1.90;99.90;;;;;;5107593;28;20023;-56
2022/03/05 02:08:51;;;;;;;10.40;5.30;;;1.90;99.90;;;;;;5107904;28;20028;-56
2022/03/05 02:11:17;;;;;;;9.05;5.25;;;1.90;99.90;;;;;;5108578;28;20027;-56
2022/03/05 02:13:43;;;;;;;8.50;5.35;;;1.90;99.90;;;;;;5108315;28;20110;-56
2022/03/05 02:16:09;;;;;;;12.52;5.82;;;1.80;99.90;;;;;;5108089;28;20027;-56
2022/03/05 02:18:35;;;;;;;10.55;5.13;;;1.80;99.90;;;;;;5108360;28;20476;-56
2022/03/05 02:21:01;;;;;;;7.90;4.25;;;1.70;99.90;;;;;;5126456;27;20075;-57
2022/03/05 02:23:26;;;;;;;10.75;5.15;;;1.70;99.90;;;;;;5143134;27;20050;-57
2022/03/05 02:25:53;;;;;;;6.75;4.60;;;1.60;99.90;;;;;;5148636;27;20075;-56
2022/03/05 02:28:20;;;;;;;11.15;5.88;;;1.60;99.90;;;;;;5149848;27;20572;-56
2022/03/05 02:30:46;;;;;;;8.63;4.95;;;1.60;99.90;;;;;;5149511;27;20248;-56
2022/03/05 02:33:11;;;;;;;8.43;4.72;;;1.60;99.90;;;;;;5149788;27;20107;-56
2022/03/05 02:35:37;;;;;;;9.13;5.07;;;1.60;99.90;;;;;;5148483;27;20391;-56
2022/03/05 02:38:02;;;;;;;13.15;5.60;;;1.60;99.90;;;;;;5149371;27;20023;-56
2022/03/05 02:40:28;;;;;;;10.80;4.90;;;1.60;99.90;;;;;;5149258;27;20031;-56
2022/03/05 02:42:53;;;;;;;10.73;4.90;;;1.60;99.90;;;;;;5149118;27;20027;-55
2022/03/05 02:45:19;;;;;;;11.63;4.63;;;1.60;99.90;;;;;;5149420;27;20502;-56
2022/03/05 02:47:44;;;;;;;10.02;5.00;;;1.60;99.90;;;;;;5148549;27;20030;-56
2022/03/05 02:50:10;;;;;;;9.68;5.10;;;1.60;99.90;;;;;;5137990;27;20177;-56
2022/03/05 02:52:39;;;;;;;9.25;4.90;;;1.60;99.90;;;;;;5141109;27;20034;-57
2022/03/05 02:55:05;;;;;;;9.48;4.90;;;1.60;99.90;;;;;;5149872;27;20026;-56
2022/03/05 02:57:31;;;;;;;7.53;4.38;;;1.70;99.90;;;;;;5149243;27;20168;-57
2022/03/05 02:59:56;;;;;;;9.63;5.30;;;1.70;99.90;;;;;;5149839;27;20027;-56
2022/03/05 03:02:22;;;;;;;8.73;4.00;;;1.60;99.90;;;;;;5149856;27;20023;-56
2022/03/05 03:04:48;;;;;;;9.88;5.68;;;1.70;99.90;;;;;;5149539;27;20110;-56
2022/03/05 03:07:13;;;;;;;10.48;4.82;;;1.70;99.90;;;;;;5147786;27;20030;-56
2022/03/05 03:09:39;;;;;;;10.05;4.88;;;1.70;99.90;;;;;;5149382;27;20111;-56
2022/03/05 03:12:04;;;;;;;8.30;4.68;;;1.70;99.90;;;;;;5149565;27;20023;-56
2022/03/05 03:14:30;;;;;;;8.50;5.13;;;1.60;99.90;;;;;;5149659;27;20049;-56
2022/03/05 03:16:55;;;;;;;10.38;4.72;;;1.70;99.90;;;;;;5148655;27;20031;-56
2022/03/05 03:19:21;;;;;;;10.50;4.97;;;1.70;99.90;;;;;;5145967;27;20023;-56
2022/03/05 03:21:46;;;;;;;10.82;4.88;;;1.70;99.90;;;;;;5141009;27;20153;-56
2022/03/05 03:24:12;;;;;;;9.43;4.68;;;1.60;99.90;;;;;;5153313;27;20105;-56
2022/03/05 03:26:37;;;;;;;11.63;5.70;;;1.60;99.90;;;;;;5152796;27;20023;-56
2022/03/05 03:29:03;;;;;;;11.95;5.47;;;1.60;99.90;;;;;;5153408;27;20464;-56
2022/03/05 03:31:29;;;;;;;10.13;4.82;;;1.60;99.90;;;;;;5153182;27;20026;-56
2022/03/05 03:33:54;;;;;;;9.57;5.00;;;1.60;99.90;;;;;;5151702;27;20027;-56
2022/03/05 03:36:19;;;;;;;7.70;5.07;;;1.60;99.90;;;;;;5152063;27;20385;-56
2022/03/05 03:38:45;;;;;;;10.27;4.85;;;1.60;99.90;;;;;;5153037;27;20485;-56
2022/03/05 03:41:11;;;;;;;9.57;4.75;;;1.60;99.90;;;;;;5152979;27;20110;-56
2022/03/05 03:43:36;;;;;;;11.90;5.38;;;1.60;99.90;;;;;;5151746;27;20507;-56
2022/03/05 03:46:02;;;;;;;10.55;5.50;;;1.60;99.90;;;;;;5152635;27;20023;-56
2022/03/05 03:48:27;;;;;;;10.48;5.25;;;1.60;99.90;;;;;;5152771;27;20019;-56
2022/03/05 03:50:53;;;;;;;10.27;5.13;;;1.60;99.90;;;;;;5139455;27;20471;-56
2022/03/05 03:53:18;;;;;;;12.07;5.45;;;1.60;99.90;;;;;;5145201;27;20054;-56
2022/03/05 03:55:44;;;;;;;11.82;5.68;;;1.50;99.90;;;;;;5151990;27;20098;-56
2022/03/05 03:58:09;;;;;;;11.45;5.45;;;1.50;99.90;;;;;;5152656;27;20023;-56
2022/03/05 04:00:35;;;;;;;11.32;5.20;;;1.50;99.90;;;;;;5152615;27;20797;-56
2022/03/05 04:03:00;;;;;;;8.65;5.25;;;1.50;99.90;;;;;;5151140;27;20025;-56
2022/03/05 04:05:26;;;;;;;10.00;5.80;;;1.40;99.90;;;;;;5152234;27;20468;-56
2022/03/05 04:10:36;;;;;;;11.80;5.55;;;1.50;99.90;;;;;;5152788;27;20053;-56
2022/03/05 04:13:02;;;;;;;10.60;6.25;;;1.50;99.90;;;;;;5151376;27;20051;-56
2022/03/05 04:15:28;;;;;;;12.48;6.38;;;1.50;99.90;;;;;;5152361;27;20031;-56
2022/03/05 04:17:53;;;;;;;7.45;5.40;;;1.50;99.90;;;;;;5151527;27;20368;-56
2022/03/05 04:20:19;;;;;;;13.93;6.13;;;1.50;99.90;;;;;;5141738;27;20025;-56
2022/03/05 04:22:44;;;;;;;12.40;6.32;;;1.50;99.90;;;;;;5143590;27;20205;-56
2022/03/05 04:25:10;;;;;;;11.82;5.85;;;1.50;99.90;;;;;;5150872;27;20091;-56
2022/03/05 04:27:36;;;;;;;9.55;5.70;;;1.50;99.90;;;;;;5151716;27;20034;-56
2022/03/05 04:30:04;;;;;;;11.50;5.50;;;1.50;99.90;;;;;;5152308;27;20027;-56
2022/03/05 04:32:29;;;;;;;12.85;5.97;;;1.50;99.90;;;;;;5151818;27;20475;-56
2022/03/05 04:34:55;;;;;;;12.10;6.22;;;1.50;99.90;;;;;;5151494;27;20114;-56
2022/03/05 04:37:20;;;;;;;11.57;5.93;;;1.50;99.90;;;;;;5151423;27;20026;-56
2022/03/05 04:39:46;;;;;;;13.30;5.93;;;1.50;99.90;;;;;;5150254;27;20279;-56
2022/03/05 04:42:11;;;;;;;11.13;6.13;;;1.50;99.90;;;;;;5150289;27;20022;-56
2022/03/05 04:44:37;;;;;;;13.82;6.72;;;1.40;99.90;;;;;;5150533;27;20424;-56
2022/03/05 04:47:02;;;;;;;13.23;6.18;;;1.40;99.90;;;;;;5151234;27;20074;-56
2022/03/05 04:49:28;;;;;;;11.25;5.97;;;1.40;99.90;;;;;;5148089;27;20083;-56
2022/03/05 04:51:53;;;;;;;11.68;6.53;;;1.40;99.90;;;;;;5137466;27;20023;-56
2022/03/05 04:54:19;;;;;;;11.88;6.43;;;1.40;99.90;;;;;;5151574;27;20264;-56
2022/03/05 04:56:45;;;;;;;13.40;6.40;;;1.30;99.90;;;;;;5150784;27;20027;-56
2022/03/05 04:59:10;;;;;;;13.05;6.72;;;1.30;99.90;;;;;;5122355;27;20604;-56
2022/03/05 05:01:36;;;;;;;9.73;6.10;;;1.20;99.90;;;;;;5117279;27;20022;-56
2022/03/05 05:04:01;;;;;;;10.07;6.53;;;1.20;99.90;;;;;;5120506;27;20027;-57
2022/03/05 05:06:27;;;;;;;12.32;6.43;;;1.10;99.90;;;;;;5118807;27;20460;-57
2022/03/05 05:08:53;;;;;;;11.80;5.40;;;1.00;99.90;;;;;;5118922;27;20039;-57
2022/03/05 05:11:19;;;;;;;13.43;6.43;;;1.00;99.90;;;;;;5114701;27;20204;-57
2022/03/05 05:13:44;;;;;;;10.05;6.15;;;1.00;99.90;;;;;;5110089;28;20110;-57
2022/03/05 05:16:10;;;;;;;12.10;6.20;;;0.90;99.90;;;;;;5107959;28;20419;-57
2022/03/05 05:18:36;;;;;;;15.80;7.22;;;0.90;99.90;;;;;;5109834;28;20023;-57
2022/03/05 05:21:02;;;;;;;14.00;6.95;;;0.80;99.90;;;;;;5116626;27;20027;-56
2022/03/05 05:23:27;;;;;;;12.82;7.13;;;0.70;99.90;;;;;;5120625;27;20046;-56
2022/03/05 05:25:53;;;;;;;13.25;6.93;;;0.70;99.90;;;;;;5117970;27;20062;-57
2022/03/05 05:28:18;;;;;;;13.88;7.22;;;0.70;99.90;;;;;;5120665;27;20023;-57
2022/03/05 05:30:44;;;;;;;13.07;7.65;;;0.70;99.90;;;;;;5119614;27;20027;-57
2022/03/05 05:33:09;;;;;;;12.80;7.80;;;0.70;99.90;;;;;;5119411;27;20447;-56
2022/03/05 05:35:35;;;;;;;13.57;7.60;;;0.60;99.90;;;;;;5121178;27;20050;-56
2022/03/05 05:38:00;;;;;;;16.63;8.48;;;0.60;99.90;;;;;;5118303;27;20102;-57
2022/03/05 05:40:26;;;;;;;12.60;7.35;;;0.60;99.90;;;;;;5120219;27;20092;-57
2022/03/05 05:42:51;;;;;;;12.95;7.60;;;0.60;99.90;;;;;;5119131;27;20028;-57
2022/03/05 05:45:18;;;;;;;14.65;7.30;;;0.50;99.90;;;;;;5120811;27;20058;-57
2022/03/05 05:47:44;;;;;;;16.63;8.43;;;0.50;99.90;;;;;;5116101;27;20026;-57
2022/03/05 05:50:10;;;;;;;13.73;7.88;;;0.40;99.90;;;;;;5119137;27;20024;-57
2022/03/05 05:52:35;;;;;;;19.42;8.20;;;0.40;99.90;;;;;;5118071;27;20035;-57
2022/03/05 05:55:01;;;;;;;17.17;8.73;;;0.40;99.90;;;;;;5119998;27;20440;-56
2022/03/05 05:57:26;;;;;;;17.13;7.45;;;0.40;99.90;;;;;;5120239;27;20034;-57
2022/03/05 05:59:52;;;;;;;16.38;8.27;;;0.30;99.90;;;;;;5129288;27;20034;-56
2022/03/05 06:02:17;;;;;;;14.10;7.82;;;0.30;99.90;;;;;;5129791;27;20499;-57
2022/03/05 06:04:43;;;;;;;16.27;7.50;;;0.30;99.90;;;;;;5119234;27;20112;-57
2022/03/05 06:07:08;;;;;;;16.58;8.45;;;0.30;99.90;;;;;;5111552;28;20490;-57
2022/03/05 06:09:34;;;;;;;14.88;8.43;;;0.30;99.90;;;;;;5117953;27;20031;-57
2022/03/05 06:11:59;;;;;;;20.83;8.55;;;0.30;99.90;;;;;;5123965;27;20408;-57
2022/03/05 06:14:25;;;;;;;15.43;7.88;;;0.30;99.90;;;;;;5120679;27;20055;-57
2022/03/05 06:16:50;;;;;;;18.35;7.93;;;0.20;99.90;;;;;;5115798;28;20069;-56
2022/03/05 06:19:16;;;;;;;16.33;8.27;;;0.20;99.90;;;;;;5118343;28;20036;-56
2022/03/05 06:21:41;;;;;;;15.82;7.93;;;0.20;99.90;;;;;;5126764;27;20023;-57
2022/03/05 06:24:07;;;;;;;14.35;7.82;;;0.20;99.90;;;;;;5119776;27;20015;-56
2022/03/05 06:26:34;;;;;;;13.55;7.38;;;0.20;99.90;;;;;;5117514;27;20624;-56
2022/03/05 06:28:59;;;;;;;15.27;8.40;;;0.20;99.90;;;;;;5116848;28;20107;-57
2022/03/05 06:31:25;;;;;;;17.75;7.60;;;0.20;99.90;;;;;;5114057;28;20119;-57
2022/03/05 06:33:50;;;;;;;18.52;10.23;;;0.20;99.90;;;;;;5109118;28;20058;-57
2022/03/05 06:36:16;;;;;;;15.68;8.05;;;0.30;99.90;;;;;;5106787;28;20049;-56
2022/03/05 06:38:41;;;;;;;12.63;7.68;;;0.20;99.90;;;;;;5108867;28;20393;-57
2022/03/05 06:41:07;;;;;;;16.73;8.13;;;0.20;99.90;;;;;;5116954;28;20037;-58
2022/03/05 06:43:32;;;;;;;16.73;8.15;;;0.30;99.90;;;;;;5128944;28;20037;-57
2022/03/05 06:45:58;;;;;;;14.70;7.78;;;0.30;99.90;;;;;;5127838;27;20054;-57
2022/03/05 06:48:23;;;;;;;15.77;8.13;;;0.30;99.90;;;;;;5128045;27;20071;-57
2022/03/05 06:50:49;;;;;;;16.67;8.00;;;0.30;99.90;;;;;;5134038;27;20472;-57
2022/03/05 06:53:14;;;;;;;16.02;8.50;;;0.30;99.90;;;;;;5149184;27;20054;-57
2022/03/05 06:55:40;;;;;;;22.30;10.02;;;0.40;99.90;;;;;;5152902;27;20127;-57
2022/03/05 06:58:05;;;;;;;17.75;8.52;;;0.40;99.90;;;;;;5152518;27;20023;-57
2022/03/05 07:00:31;;;;;;;13.95;7.88;;;0.40;99.90;;;;;;5153140;27;20027;-57
2022/03/05 07:02:57;;;;;;;15.23;8.25;;;0.50;99.90;;;;;;5153170;27;20427;-57
2022/03/05 07:05:22;;;;;;;22.38;8.98;;;0.50;99.90;;;;;;5152886;27;20026;-57
2022/03/05 07:07:48;;;;;;;20.25;10.18;;;0.50;99.90;;;;;;5152543;27;20015;-57
2022/03/05 07:10:13;;;;;;;17.30;8.57;;;0.50;99.90;;;;;;5152565;27;20035;-57
2022/03/05 07:12:39;;;;;;;16.75;8.63;;;0.60;99.90;;;;;;5152973;27;20151;-57
2022/03/05 07:15:05;;;;;;;13.25;7.95;;;0.60;99.90;;;;;;5151253;27;20029;-55
2022/03/05 07:17:31;;;;;;;19.08;8.75;;;0.70;99.90;;;;;;5151817;27;20440;-55
2022/03/05 07:19:56;;;;;;;14.20;8.40;;;0.70;99.90;;;;;;5139698;27;20016;-54
2022/03/05 07:22:23;;;;;;;14.15;8.07;;;0.70;99.90;;;;;;5142506;27;20391;-53
2022/03/05 07:24:49;;;;;;;15.10;8.32;;;0.80;99.90;;;;;;5152788;27;20471;-55
2022/03/05 07:27:15;;;;;;;16.75;7.57;;;0.90;99.90;;;;;;5150491;27;20387;-54
2022/03/05 07:29:42;;;;;;;17.50;8.88;;;0.90;99.90;;;;;;5153179;27;20023;-55
2022/03/05 07:32:08;;;;;;;17.92;8.60;;;1.00;99.90;;;;;;5152407;27;20022;-54
2022/03/05 07:34:33;;;;;;;17.98;8.50;;;1.10;99.90;;;;;;5152610;27;20483;-53
2022/03/05 07:36:59;;;;;;;16.27;8.23;;;1.10;99.90;;;;;;5151593;27;20212;-53
2022/03/05 07:39:25;;;;;;;17.02;8.88;;;1.20;99.90;;;;;;5152475;27;20073;-54
2022/03/05 07:41:51;;;;;;;17.20;8.70;;;1.20;99.90;;;;;;5153024;27;20471;-54
2022/03/05 07:44:16;;;;;;;15.68;8.05;;;1.30;99.90;;;;;;5152069;27;20023;-53
2022/03/05 07:46:42;;;;;;;13.27;6.82;;;1.40;99.90;;;;;;5150590;27;20026;-53
2022/03/05 07:49:07;;;;;;;13.07;7.20;;;1.40;99.90;;;;;;5151871;27;20019;-54
2022/03/05 07:51:34;;;;;;;12.40;6.55;;;1.50;99.90;;;;;;5140590;27;20122;-53
2022/03/05 07:54:00;;;;;;;13.48;7.20;;;1.50;99.90;;;;;;5150122;27;20517;-54
2022/03/05 07:56:25;;;;;;;11.00;7.30;;;1.60;99.90;;;;;;5150215;27;20027;-54
2022/03/05 07:58:51;;;;;;;13.52;6.82;;;1.60;99.90;;;;;;5146585;27;20118;-54
2022/03/05 08:01:17;;;;;;;13.10;7.60;;;1.60;99.90;;;;;;5121358;27;20038;-54
2022/03/05 08:03:42;;;;;;;10.27;6.68;;;1.70;99.90;;;;;;5118873;27;20027;-55
2022/03/05 08:06:07;;;;;;;13.68;7.72;;;1.80;99.90;;;;;;5109010;28;20057;-56
2022/03/05 08:08:33;;;;;;;13.27;6.85;;;1.80;99.90;;;;;;5110667;28;20019;-57
2022/03/05 08:10:59;;;;;;;13.93;6.95;;;1.90;99.90;;;;;;5110279;28;20042;-56
2022/03/05 08:13:24;;;;;;;13.05;6.97;;;1.90;99.90;;;;;;5110530;28;20020;-56
2022/03/05 08:15:51;;;;;;;15.25;7.65;;;2.00;99.90;;;;;;5109497;28;20388;-55
2022/03/05 08:18:16;;;;;;;8.80;6.10;;;2.10;99.90;;;;;;5111217;28;20476;-56
2022/03/05 08:20:41;;;;;;;10.93;5.40;;;2.20;99.90;;;;;;5126714;27;20026;-53
2022/03/05 08:23:07;;;;;;;11.38;6.13;;;2.20;99.90;;;;;;5143299;27;20054;-58
2022/03/05 08:25:33;;;;;;;9.77;5.68;;;2.20;99.90;;;;;;5151177;27;20022;-44
2022/03/05 08:27:58;;;;;;;9.77;5.43;;;2.30;99.90;;;;;;5150566;27;20471;-46
2022/03/05 08:30:24;;;;;;;8.00;5.35;;;2.60;99.90;;;;;;5149324;27;20087;-45
2022/03/05 08:32:49;;;;;;;10.05;4.70;;;2.70;99.90;;;;;;5127597;27;20026;-45
2022/03/05 08:35:15;;;;;;;16.08;5.00;;;2.70;99.90;;;;;;5130393;27;20034;-45
2022/03/05 08:37:42;;;;;;;8.35;4.82;;;2.80;99.90;;;;;;5126578;27;20484;-49
2022/03/05 08:40:09;;;;;;;10.35;4.72;;;2.90;99.90;;;;;;5129019;27;20055;-46
2022/03/05 08:42:35;;;;;;;9.77;5.32;;;3.00;99.90;;;;;;5129918;27;20548;-45
2022/03/05 08:45:03;;;;;;;13.52;5.10;;;3.00;99.90;;;;;;5130253;27;20024;-46
2022/03/05 08:47:29;;;;;;;8.23;5.47;;;3.10;99.90;;;;;;5122292;27;20565;-45
2022/03/05 08:49:54;;;;;;;11.55;5.40;;;3.30;99.90;;;;;;5125176;27;20020;-45
2022/03/05 08:52:20;;;;;;;10.20;5.88;;;3.40;99.90;;;;;;5118932;27;20480;-47
2022/03/05 08:54:45;;;;;;;9.57;5.07;;;3.50;99.90;;;;;;5118828;27;20023;-46
2022/03/05 08:57:11;;;;;;;11.98;4.93;;;3.60;99.90;;;;;;5118281;27;20048;-41
2022/03/05 08:59:40;;;;;;;9.70;5.90;;;3.80;99.90;;;;;;5133962;27;20472;-41
2022/03/05 09:02:06;;;;;;;10.27;5.25;;;4.00;99.90;;;;;;5123097;27;20024;-41
2022/03/05 09:04:32;;;;;;;9.57;5.20;;;4.20;99.90;;;;;;5126859;27;20090;-42
2022/03/05 09:06:58;;;;;;;5.82;4.07;;;4.90;99.90;;;;;;5128943;27;20015;-42
2022/03/05 09:09:23;;;;;;;6.78;4.60;;;6.60;99.90;;;;;;5128234;27;20130;-40
2022/03/05 09:11:49;;;;;;;7.15;4.20;;;9.30;96.20;;;;;;5130033;27;20080;-42
2022/03/05 09:14:14;;;;;;;9.50;5.40;;;11.70;87.20;;;;;;5129466;27;20030;-40
2022/03/05 09:16:40;;;;;;;6.50;4.15;;;13.60;69.40;;;;;;5126408;27;20422;-41
2022/03/05 09:19:07;;;;;;;4.97;3.92;;;15.20;62.70;;;;;;5119898;27;20049;-40
2022/03/05 09:21:34;;;;;;;7.97;4.32;;;16.40;57.10;;;;;;5126012;27;20030;-40
2022/03/05 09:24:00;;;;;;;4.68;3.72;;;16.30;52.40;;;;;;5121910;27;20484;-40
